createdAt,value
2023-04-06T00:01:15.106Z,2.10
2023-04-06T00:03:45.321Z,2.10
2023-04-06T00:06:17.182Z,2.10
2023-04-06T00:08:47.902Z,2.10
2023-04-06T00:11:17.978Z,2.00
2023-04-06T00:13:48.598Z,2.00
2023-04-06T00:16:23.069Z,2.00
2023-04-06T00:18:54.828Z,2.00
2023-04-06T00:21:24.934Z,2.00
2023-04-06T00:23:54.961Z,1.90
2023-04-06T00:26:25.082Z,1.90
2023-04-06T00:28:55.149Z,1.80
2023-04-06T00:31:27.843Z,1.70
2023-04-06T00:33:57.910Z,1.60
2023-04-06T00:36:28.127Z,1.60
2023-04-06T00:38:58.160Z,1.60
2023-04-06T00:41:28.231Z,1.60
2023-04-06T00:43:58.431Z,1.40
2023-04-06T00:46:32.085Z,1.30
2023-04-06T00:49:02.277Z,1.40
2023-04-06T00:51:32.529Z,1.40
2023-04-06T00:54:02.634Z,1.40
2023-04-06T00:56:32.723Z,1.40
2023-04-06T00:59:02.953Z,1.30
2023-04-06T01:01:36.357Z,1.20
2023-04-06T01:04:06.587Z,1.10
2023-04-06T01:06:36.769Z,1.20
2023-04-06T01:09:07.244Z,1.20
2023-04-06T01:11:37.623Z,1.40
2023-04-06T01:14:07.760Z,1.50
2023-04-06T01:16:41.063Z,1.50
2023-04-06T01:19:15.672Z,1.50
2023-04-06T01:21:45.837Z,1.50
2023-04-06T01:24:18.579Z,1.50
2023-04-06T01:26:49.071Z,1.40
2023-04-06T01:29:19.200Z,1.50
2023-04-06T01:31:49.311Z,1.50
2023-04-06T01:34:19.477Z,1.40
2023-04-06T01:36:49.534Z,1.40
2023-04-06T01:39:22.573Z,1.40
2023-04-06T01:41:52.608Z,1.40
2023-04-06T01:44:22.664Z,1.30
2023-04-06T01:46:52.777Z,1.30
2023-04-06T01:49:22.950Z,1.40
2023-04-06T01:51:53.476Z,1.30
2023-04-06T01:54:26.524Z,1.30
2023-04-06T01:56:56.766Z,1.20
2023-04-06T01:59:26.968Z,1.30
2023-04-06T02:01:57.066Z,1.20
2023-04-06T02:04:27.178Z,1.20
2023-04-06T02:06:57.275Z,1.20
2023-04-06T02:09:29.934Z,1.20
2023-04-06T02:12:00.004Z,1.20
2023-04-06T02:14:30.198Z,1.20
2023-04-06T02:17:00.421Z,1.20
2023-04-06T02:19:30.512Z,1.10
2023-04-06T02:22:00.595Z,1.10
2023-04-06T02:24:33.318Z,1.20
2023-04-06T02:27:03.694Z,1.20
2023-04-06T02:29:33.713Z,1.20
2023-04-06T02:32:03.819Z,1.20
2023-04-06T02:34:33.884Z,1.20
2023-04-06T02:37:04.053Z,1.10
2023-04-06T02:39:36.812Z,1.20
2023-04-06T02:42:06.905Z,1.10
2023-04-06T02:44:36.939Z,1.10
2023-04-06T02:47:07.017Z,1.10
2023-04-06T02:49:37.025Z,1.10
2023-04-06T02:52:07.282Z,1.10
2023-04-06T02:54:39.933Z,1.10
2023-04-06T02:57:10.024Z,1.00
2023-04-06T02:59:40.249Z,1.10
2023-04-06T03:02:10.429Z,1.10
2023-04-06T03:04:40.446Z,1.00
2023-04-06T03:07:10.668Z,1.00
2023-04-06T03:09:43.656Z,1.00
2023-04-06T03:12:13.692Z,1.00
2023-04-06T03:14:43.735Z,1.00
2023-04-06T03:17:13.779Z,1.00
2023-04-06T03:19:43.821Z,1.10
2023-04-06T03:22:13.877Z,1.00
2023-04-06T03:24:46.516Z,1.10
2023-04-06T03:27:16.572Z,1.00
2023-04-06T03:29:47.025Z,1.00
2023-04-06T03:32:17.066Z,1.00
2023-04-06T03:34:47.111Z,0.90
2023-04-06T03:37:17.220Z,1.00
2023-04-06T03:39:49.917Z,1.00
2023-04-06T03:42:19.956Z,0.90
2023-04-06T03:44:49.992Z,0.90
2023-04-06T03:47:20.042Z,0.90
2023-04-06T03:49:50.169Z,0.90
2023-04-06T03:52:20.263Z,0.80
2023-04-06T03:54:52.913Z,0.80
2023-04-06T03:57:22.938Z,0.70
2023-04-06T03:59:53.106Z,0.80
2023-04-06T04:02:23.200Z,0.80
2023-04-06T04:04:53.429Z,0.80
2023-04-06T04:07:23.514Z,0.80
2023-04-06T04:09:56.094Z,0.80
2023-04-06T04:12:26.170Z,0.70
2023-04-06T04:14:56.189Z,0.70
2023-04-06T04:17:26.473Z,0.70
2023-04-06T04:19:56.589Z,0.70
2023-04-06T04:22:26.655Z,0.70
2023-04-06T04:24:59.256Z,0.60
2023-04-06T04:27:29.294Z,0.70
2023-04-06T04:29:59.289Z,0.70
2023-04-06T04:32:29.380Z,0.70
2023-04-06T04:34:59.421Z,0.70
2023-04-06T04:37:29.538Z,0.70
2023-04-06T04:40:02.179Z,0.80
2023-04-06T04:42:32.309Z,0.70
2023-04-06T04:45:02.382Z,0.70
2023-04-06T04:47:32.571Z,0.70
2023-04-06T04:50:02.676Z,0.70
2023-04-06T04:52:32.722Z,0.70
2023-04-06T04:55:06.180Z,0.60
2023-04-06T04:57:36.251Z,0.60
2023-04-06T05:00:07.345Z,0.70
2023-04-06T05:02:37.508Z,0.70
2023-04-06T05:05:08.379Z,0.70
2023-04-06T05:07:38.454Z,0.80
2023-04-06T05:10:12.152Z,1.10
2023-04-06T05:12:42.310Z,2.00
2023-04-06T05:15:13.754Z,2.70
2023-04-06T05:17:43.958Z,3.30
2023-04-06T05:20:15.022Z,3.60
2023-04-06T05:22:45.098Z,4.10
2023-04-06T05:25:17.893Z,4.30
2023-04-06T05:27:47.965Z,4.50
2023-04-06T05:30:18.577Z,4.70
2023-04-06T05:32:49.127Z,5.10
2023-04-06T05:35:19.331Z,5.00
2023-04-06T05:37:50.253Z,3.30
2023-04-06T05:40:22.918Z,2.50
2023-04-06T05:42:53.104Z,2.30
2023-04-06T05:45:23.598Z,2.30
2023-04-06T05:47:53.780Z,2.20
2023-04-06T05:50:24.016Z,2.30
2023-04-06T05:52:54.099Z,2.40
2023-04-06T05:55:26.694Z,2.40
2023-04-06T05:57:56.749Z,2.50
2023-04-06T06:00:27.375Z,2.60
2023-04-06T06:02:57.511Z,2.60
2023-04-06T06:05:27.757Z,2.60
2023-04-06T06:07:58.143Z,2.60
2023-04-06T06:10:30.842Z,2.70
2023-04-06T06:13:00.968Z,2.60
2023-04-06T06:15:30.990Z,2.70
2023-04-06T06:18:01.709Z,2.90
2023-04-06T06:20:32.000Z,2.80
2023-04-06T06:23:02.157Z,3.00
2023-04-06T06:25:34.801Z,2.90
2023-04-06T06:28:04.855Z,3.00
2023-04-06T06:30:35.253Z,3.00
2023-04-06T06:33:05.412Z,3.20
2023-04-06T06:35:35.526Z,3.30
2023-04-06T06:38:05.708Z,3.30
2023-04-06T06:40:38.558Z,3.50
2023-04-06T06:43:08.861Z,3.40
2023-04-06T06:45:39.019Z,3.60
2023-04-06T06:48:09.308Z,3.60
2023-04-06T06:50:39.407Z,3.60
2023-04-06T06:53:09.712Z,3.60
2023-04-06T06:55:42.344Z,3.80
2023-04-06T06:58:12.403Z,4.00
2023-04-06T07:00:45.292Z,4.10
2023-04-06T07:03:15.529Z,4.10
2023-04-06T07:05:54.377Z,4.20
2023-04-06T07:08:25.012Z,4.10
2023-04-06T07:10:58.755Z,4.30
2023-04-06T07:13:28.837Z,4.50
2023-04-06T07:15:58.962Z,4.60
2023-04-06T07:18:29.817Z,4.60
2023-04-06T07:21:00.689Z,4.70
2023-04-06T07:23:30.862Z,5.00
2023-04-06T07:26:03.513Z,5.20
2023-04-06T07:28:33.585Z,5.20
2023-04-06T07:31:03.638Z,5.20
2023-04-06T07:33:33.722Z,5.30
2023-04-06T07:36:03.866Z,5.60
2023-04-06T07:38:34.528Z,5.60
2023-04-06T07:41:07.696Z,5.60
2023-04-06T07:43:37.797Z,5.60
2023-04-06T07:46:08.032Z,5.70
2023-04-06T07:48:38.658Z,5.80
2023-04-06T07:51:15.189Z,5.90
2023-04-06T07:53:45.436Z,6.20
2023-04-06T07:56:18.290Z,6.20
2023-04-06T07:58:48.373Z,6.40
2023-04-06T08:01:18.497Z,6.50
2023-04-06T08:03:48.667Z,6.60
2023-04-06T08:06:18.946Z,6.90
2023-04-06T08:08:49.021Z,6.90
2023-04-06T08:11:21.801Z,7.10
2023-04-06T08:13:51.916Z,7.00
2023-04-06T08:16:22.914Z,7.10
2023-04-06T08:18:53.061Z,7.20
2023-04-06T08:21:23.124Z,7.10
2023-04-06T08:23:53.163Z,7.40
2023-04-06T08:26:27.181Z,7.50
2023-04-06T08:28:57.394Z,7.60
2023-04-06T08:31:27.426Z,7.80
2023-04-06T08:33:57.549Z,7.90
2023-04-06T08:36:27.604Z,7.70
2023-04-06T08:38:57.694Z,7.90
2023-04-06T08:41:31.381Z,8.30
2023-04-06T08:44:02.860Z,8.20
2023-04-06T08:46:34.198Z,8.20
2023-04-06T08:49:07.889Z,8.30
2023-04-06T08:51:41.280Z,8.30
2023-04-06T08:54:11.331Z,8.40
2023-04-06T08:56:44.617Z,8.70
2023-04-06T08:59:14.776Z,9.00
2023-04-06T09:01:47.074Z,8.80
2023-04-06T09:04:17.820Z,8.80
2023-04-06T09:06:48.343Z,8.80
2023-04-06T09:09:18.470Z,9.00
2023-04-06T09:11:53.283Z,9.20
2023-04-06T09:14:39.239Z,9.20
2023-04-06T09:17:09.702Z,9.10
2023-04-06T09:19:49.665Z,9.20
2023-04-06T09:22:20.003Z,9.30
2023-04-06T09:24:51.417Z,9.30
2023-04-06T09:27:34.507Z,9.10
2023-04-06T09:30:11.020Z,9.40
2023-04-06T09:32:51.731Z,9.50
2023-04-06T09:35:23.724Z,9.70
2023-04-06T09:37:54.928Z,10.00
2023-04-06T09:40:25.465Z,9.90
2023-04-06T09:42:59.808Z,9.90
2023-04-06T09:45:30.582Z,10.20
2023-04-06T09:48:01.282Z,10.40
2023-04-06T09:50:34.224Z,10.30
2023-04-06T09:53:04.964Z,10.00
2023-04-06T09:55:38.808Z,10.20
2023-04-06T09:58:16.499Z,10.70
2023-04-06T10:00:53.735Z,11.10
2023-04-06T10:03:38.758Z,11.10
2023-04-06T10:06:14.539Z,11.00
2023-04-06T10:08:46.713Z,10.80
2023-04-06T10:11:17.147Z,10.70
2023-04-06T10:13:52.569Z,10.80
2023-04-06T10:16:22.715Z,11.20
2023-04-06T10:19:00.219Z,10.60
2023-04-06T10:21:32.835Z,10.80
2023-04-06T10:24:04.681Z,10.70
2023-04-06T10:26:35.114Z,10.90
2023-04-06T10:29:08.823Z,10.70
2023-04-06T10:31:46.053Z,10.60
2023-04-06T10:34:16.261Z,11.00
2023-04-06T10:36:46.410Z,11.30
2023-04-06T10:39:16.903Z,11.20
2023-04-06T10:41:49.816Z,11.60
2023-04-06T10:44:28.130Z,11.80
2023-04-06T10:47:01.546Z,11.70
2023-04-06T10:49:31.670Z,11.30
2023-04-06T10:52:01.722Z,11.50
2023-04-06T10:54:33.825Z,11.30
2023-04-06T10:57:03.986Z,11.50
2023-04-06T10:59:36.796Z,11.90
2023-04-06T11:02:06.987Z,12.00
2023-04-06T11:04:37.171Z,11.80
2023-04-06T11:07:07.294Z,11.70
2023-04-06T11:09:37.777Z,11.70
2023-04-06T11:12:08.480Z,11.30
2023-04-06T11:14:41.112Z,11.30
2023-04-06T11:17:11.219Z,11.80
2023-04-06T11:19:41.340Z,12.10
2023-04-06T11:22:12.054Z,11.90
2023-04-06T11:24:42.095Z,11.70
2023-04-06T11:27:12.556Z,11.80
2023-04-06T11:29:47.072Z,12.10
2023-04-06T11:32:25.586Z,12.00
2023-04-06T11:34:55.756Z,12.00
2023-04-06T11:37:29.723Z,11.90
2023-04-06T11:40:00.185Z,11.60
2023-04-06T11:42:31.886Z,11.70
2023-04-06T11:45:04.775Z,11.90
2023-04-06T11:47:38.507Z,12.10
2023-04-06T11:50:13.044Z,12.10
2023-04-06T11:52:43.517Z,12.00
2023-04-06T11:55:18.356Z,12.30
2023-04-06T11:57:48.814Z,12.30
2023-04-06T12:00:22.564Z,12.10
2023-04-06T12:02:53.329Z,12.20
2023-04-06T12:05:24.163Z,12.00
2023-04-06T12:07:54.240Z,12.30
2023-04-06T12:10:24.351Z,12.50
2023-04-06T12:12:54.377Z,12.50
2023-04-06T12:15:26.959Z,11.90
2023-04-06T12:17:57.177Z,12.00
2023-04-06T12:20:27.772Z,12.20
2023-04-06T12:22:57.992Z,12.10
2023-04-06T12:25:28.019Z,12.30
2023-04-06T12:27:59.037Z,12.70
2023-04-06T12:30:31.776Z,12.30
2023-04-06T12:33:02.596Z,12.60
2023-04-06T12:35:32.618Z,12.40
2023-04-06T12:38:02.771Z,12.50
2023-04-06T12:40:32.966Z,12.60
2023-04-06T12:43:03.008Z,12.80
2023-04-06T12:45:38.139Z,13.30
2023-04-06T12:48:08.277Z,13.80
2023-04-06T12:50:40.354Z,13.50
2023-04-06T12:53:10.566Z,13.50
2023-04-06T12:55:40.565Z,13.80
2023-04-06T12:58:10.571Z,13.60
2023-04-06T13:00:43.312Z,13.40
2023-04-06T13:03:13.461Z,13.20
2023-04-06T13:05:48.400Z,13.10
2023-04-06T13:08:20.601Z,13.20
2023-04-06T13:10:51.803Z,12.80
2023-04-06T13:13:24.994Z,12.90
2023-04-06T13:15:59.469Z,13.20
2023-04-06T13:18:29.625Z,12.70
2023-04-06T13:21:00.618Z,12.50
2023-04-06T13:23:30.918Z,12.50
2023-04-06T13:26:04.403Z,12.80
2023-04-06T13:28:35.375Z,12.70
2023-04-06T13:31:08.144Z,12.80
2023-04-06T13:33:38.304Z,12.90
2023-04-06T13:36:11.037Z,12.80
2023-04-06T13:38:42.541Z,12.90
2023-04-06T13:41:12.741Z,12.90
2023-04-06T13:43:42.783Z,13.30
2023-04-06T13:46:15.636Z,13.20
2023-04-06T13:48:45.904Z,13.20
2023-04-06T13:51:17.008Z,13.10
2023-04-06T13:53:47.054Z,13.40
2023-04-06T13:56:17.296Z,13.50
2023-04-06T13:58:47.127Z,13.30
2023-04-06T14:01:19.695Z,13.10
2023-04-06T14:03:49.958Z,13.40
2023-04-06T14:06:31.132Z,13.30
2023-04-06T14:09:02.240Z,13.30
2023-04-06T14:11:32.850Z,13.40
2023-04-06T14:14:03.320Z,13.40
2023-04-06T14:16:35.841Z,13.60
2023-04-06T14:19:05.768Z,13.60
2023-04-06T14:21:35.631Z,13.30
2023-04-06T14:24:05.564Z,13.60
2023-04-06T14:26:35.976Z,13.70
2023-04-06T14:29:05.999Z,13.90
2023-04-06T14:31:38.417Z,13.50
2023-04-06T14:34:08.413Z,13.50
2023-04-06T14:36:39.729Z,13.70
2023-04-06T14:39:11.280Z,13.70
2023-04-06T14:41:41.957Z,13.60
2023-04-06T14:44:13.409Z,13.40
2023-04-06T14:46:46.001Z,13.40
2023-04-06T14:49:15.953Z,13.30
2023-04-06T14:51:45.829Z,13.60
2023-04-06T14:54:15.722Z,13.40
2023-04-06T14:56:45.755Z,13.30
2023-04-06T14:59:15.641Z,13.40
2023-04-06T15:01:48.183Z,13.80
2023-04-06T15:04:18.242Z,13.50
2023-04-06T15:06:48.345Z,13.30
2023-04-06T15:09:18.161Z,13.30
2023-04-06T15:11:48.089Z,13.40
2023-04-06T15:14:17.936Z,13.60
2023-04-06T15:16:50.405Z,13.30
2023-04-06T15:19:20.354Z,13.20
2023-04-06T15:21:50.399Z,13.30
2023-04-06T15:24:20.423Z,13.20
2023-04-06T15:26:50.594Z,13.10
2023-04-06T15:29:20.628Z,13.10
2023-04-06T15:31:53.094Z,12.90
2023-04-06T15:34:23.010Z,12.90
2023-04-06T15:36:53.982Z,12.90
2023-04-06T15:39:23.881Z,12.90
2023-04-06T15:41:53.745Z,13.10
2023-04-06T15:44:23.623Z,13.40
2023-04-06T15:46:56.854Z,13.60
2023-04-06T15:49:26.891Z,13.60
2023-04-06T15:51:56.802Z,13.40
2023-04-06T15:54:26.714Z,13.30
2023-04-06T15:56:57.002Z,13.40
2023-04-06T15:59:27.274Z,13.10
2023-04-06T16:02:00.578Z,13.10
2023-04-06T16:04:31.145Z,13.10
2023-04-06T16:07:01.256Z,13.10
2023-04-06T16:09:31.556Z,13.00
2023-04-06T16:12:01.922Z,13.10
2023-04-06T16:14:31.922Z,13.00
2023-04-06T16:17:04.373Z,13.00
2023-04-06T16:19:34.287Z,12.90
2023-04-06T16:22:04.167Z,12.90
2023-04-06T16:24:34.081Z,13.00
2023-04-06T16:27:04.137Z,12.90
2023-04-06T16:29:35.446Z,12.80
2023-04-06T16:32:11.123Z,12.70
2023-04-06T16:34:41.221Z,12.70
2023-04-06T16:37:11.519Z,12.70
2023-04-06T16:39:41.368Z,12.40
2023-04-06T16:42:11.186Z,12.30
2023-04-06T16:44:41.313Z,12.40
2023-04-06T16:47:13.754Z,12.50
2023-04-06T16:49:43.888Z,12.30
2023-04-06T16:52:14.955Z,12.30
2023-04-06T16:54:44.860Z,12.10
2023-04-06T16:57:15.667Z,12.00
2023-04-06T16:59:46.223Z,12.10
2023-04-06T17:02:18.732Z,12.20
2023-04-06T17:04:48.840Z,12.00
2023-04-06T17:07:18.912Z,11.80
2023-04-06T17:09:49.165Z,11.80
2023-04-06T17:12:18.991Z,11.70
2023-04-06T17:14:48.877Z,11.60
2023-04-06T17:17:21.660Z,11.70
2023-04-06T17:19:51.607Z,11.70
2023-04-06T17:22:21.453Z,11.60
2023-04-06T17:24:51.519Z,11.50
2023-04-06T17:27:23.685Z,11.50
2023-04-06T17:29:53.639Z,11.50
2023-04-06T17:32:27.922Z,11.50
2023-04-06T17:34:57.842Z,11.40
2023-04-06T17:37:27.657Z,11.40
2023-04-06T17:39:57.968Z,11.30
2023-04-06T17:42:27.911Z,11.30
2023-04-06T17:44:57.791Z,11.30
2023-04-06T17:47:32.268Z,11.30
2023-04-06T17:50:02.785Z,11.20
2023-04-06T17:52:33.034Z,11.20
2023-04-06T17:55:03.120Z,11.30
2023-04-06T17:57:32.940Z,11.20
2023-04-06T18:00:02.805Z,11.10
2023-04-06T18:02:35.524Z,11.20
2023-04-06T18:05:05.735Z,11.20
2023-04-06T18:07:36.937Z,11.10
2023-04-06T18:10:07.542Z,11.10
2023-04-06T18:12:37.425Z,11.00
2023-04-06T18:15:08.872Z,11.00
2023-04-06T18:17:41.410Z,11.00
2023-04-06T18:20:14.222Z,11.00
2023-04-06T18:22:45.719Z,10.90
2023-04-06T18:25:15.598Z,10.90
2023-04-06T18:27:45.592Z,10.90
2023-04-06T18:30:18.209Z,10.80
2023-04-06T18:32:50.735Z,10.80
2023-04-06T18:35:21.084Z,10.90
2023-04-06T18:37:50.922Z,10.90
2023-04-06T18:40:36.600Z,10.80
2023-04-06T18:43:07.945Z,10.70
2023-04-06T18:45:39.018Z,10.80
2023-04-06T18:48:11.852Z,10.70
2023-04-06T18:50:42.096Z,10.70
2023-04-06T18:53:12.266Z,10.70
2023-04-06T18:55:42.133Z,10.70
2023-04-06T18:58:11.960Z,10.60
2023-04-06T19:00:43.034Z,10.60
2023-04-06T19:03:15.640Z,10.60
2023-04-06T19:05:46.014Z,10.70
2023-04-06T19:08:16.244Z,10.60
2023-04-06T19:10:46.273Z,10.60
2023-04-06T19:13:16.290Z,10.80
2023-04-06T19:15:46.608Z,10.80
2023-04-06T19:18:19.077Z,10.80
2023-04-06T19:20:48.956Z,10.70
2023-04-06T19:23:18.777Z,10.70
2023-04-06T19:25:48.749Z,10.60
2023-04-06T19:28:18.816Z,10.60
2023-04-06T19:30:48.757Z,10.60
2023-04-06T19:33:21.279Z,10.50
2023-04-06T19:35:51.452Z,10.50
2023-04-06T19:38:21.289Z,10.50
2023-04-06T19:40:51.180Z,10.40
2023-04-06T19:43:21.685Z,10.40
2023-04-06T19:45:51.669Z,10.40
2023-04-06T19:48:24.129Z,10.40
2023-04-06T19:50:56.144Z,10.40
2023-04-06T19:53:26.347Z,10.30
2023-04-06T19:55:56.206Z,10.30
2023-04-06T19:58:26.210Z,10.40
2023-04-06T20:00:56.085Z,10.40
2023-04-06T20:03:28.753Z,10.30
2023-04-06T20:05:58.840Z,10.30
2023-04-06T20:08:29.914Z,10.30
2023-04-06T20:11:04.700Z,10.30
2023-04-06T20:13:34.598Z,10.30
2023-04-06T20:16:04.645Z,10.20
2023-04-06T20:18:37.222Z,10.20
2023-04-06T20:21:07.368Z,10.20
2023-04-06T20:23:37.764Z,10.10
2023-04-06T20:26:10.810Z,10.10
2023-04-06T20:28:41.019Z,10.00
2023-04-06T20:31:11.041Z,10.00
2023-04-06T20:33:43.578Z,10.00
2023-04-06T20:36:14.057Z,10.00
2023-04-06T20:38:43.917Z,9.90
2023-04-06T20:41:13.803Z,9.90
2023-04-06T20:43:43.884Z,9.80
2023-04-06T20:46:18.586Z,9.80
2023-04-06T20:48:51.062Z,9.80
2023-04-06T20:51:23.314Z,9.80
2023-04-06T20:53:53.964Z,9.80
2023-04-06T20:56:24.492Z,9.80
2023-04-06T20:58:54.381Z,9.80
2023-04-06T21:01:24.331Z,9.80
2023-04-06T21:03:56.895Z,9.70
2023-04-06T21:06:29.554Z,9.60
2023-04-06T21:08:59.766Z,9.40
2023-04-06T21:11:29.777Z,9.40
2023-04-06T21:13:59.815Z,9.40
2023-04-06T21:16:29.729Z,9.40
2023-04-06T21:19:02.244Z,9.40
2023-04-06T21:21:32.164Z,9.30
2023-04-06T21:24:02.044Z,9.20
2023-04-06T21:26:32.061Z,9.20
2023-04-06T21:29:01.964Z,9.10
2023-04-06T21:31:31.895Z,9.00
2023-04-06T21:34:04.541Z,8.90
2023-04-06T21:36:34.521Z,8.80
2023-04-06T21:39:04.445Z,8.60
2023-04-06T21:41:35.056Z,8.50
2023-04-06T21:44:05.012Z,8.40
2023-04-06T21:46:35.521Z,8.50
2023-04-06T21:49:08.019Z,8.40
2023-04-06T21:51:37.972Z,8.20
2023-04-06T21:54:08.228Z,8.20
2023-04-06T21:56:38.153Z,8.10
2023-04-06T21:59:08.065Z,8.10
2023-04-06T22:01:37.955Z,8.00
2023-04-06T22:04:10.737Z,8.00
2023-04-06T22:06:42.009Z,8.00
2023-04-06T22:09:12.476Z,7.90
2023-04-06T22:11:42.897Z,7.80
2023-04-06T22:14:13.169Z,7.70
2023-04-06T22:16:43.214Z,7.50
2023-04-06T22:19:15.767Z,7.50
2023-04-06T22:21:47.373Z,7.50
2023-04-06T22:24:17.656Z,7.40
2023-04-06T22:26:47.784Z,7.30
2023-04-06T22:29:17.716Z,7.20
2023-04-06T22:31:50.598Z,7.30
2023-04-06T22:34:23.065Z,7.20
2023-04-06T22:36:52.968Z,7.30
2023-04-06T22:39:22.817Z,7.30
2023-04-06T22:41:52.626Z,7.30
2023-04-06T22:44:23.243Z,7.20
2023-04-06T22:46:53.131Z,7.20
2023-04-06T22:49:25.679Z,7.20
2023-04-06T22:51:55.552Z,7.20
2023-04-06T22:54:25.764Z,7.20
2023-04-06T22:56:56.035Z,7.20
2023-04-06T22:59:26.272Z,7.20
2023-04-06T23:01:57.049Z,7.10
2023-04-06T23:04:29.825Z,7.10
2023-04-06T23:06:59.748Z,7.10
2023-04-06T23:09:29.802Z,7.10
2023-04-06T23:11:59.645Z,6.90
2023-04-06T23:14:29.520Z,7.00
2023-04-06T23:16:59.418Z,6.90
2023-04-06T23:19:32.021Z,6.90
2023-04-06T23:22:02.126Z,6.90
2023-04-06T23:24:31.993Z,6.90
2023-04-06T23:27:01.864Z,6.90
2023-04-06T23:29:32.100Z,6.90
2023-04-06T23:32:02.233Z,6.80
2023-04-06T23:34:34.669Z,6.90
2023-04-06T23:37:04.482Z,6.90
2023-04-06T23:39:34.418Z,6.90
2023-04-06T23:42:04.333Z,6.80
2023-04-06T23:44:34.321Z,6.80
2023-04-06T23:47:04.271Z,6.80
2023-04-06T23:49:37.021Z,6.80
2023-04-06T23:52:07.212Z,6.80
2023-04-06T23:54:37.242Z,6.80
2023-04-06T23:57:07.303Z,6.80
2023-04-06T23:59:37.164Z,6.80
